Harbert, Michigan
Current Conditions -  °F | °C
As of 3:15 AM on Sunday 26 Oct 2014 (Local Time) from KMGC Reporting Station
Clear Clear  
Wind Chill: 12°   Ceiling: Unl
Heat Index: 12°   Visibility: 10mi
Dew Point:   Wind: 8mph
Humidity: 51%   Direction: 310°NW
Pressure: 29.97"   Gusts: NA
Location:  41.87°N, 86.63°W
Report Text: KMGC 260715Z AUTO 31007KT 10SM CLR 12/02 A2997 RMK AO2
Loading
Personal Weather Stations






























Interactive Weather Map
Tropical Storm Tracking
New forecast layout! Learn more

10-Day Weather Forecast

Advertisements
Track Severe Weather on mobile